sensor_id;sensor_type;location;lat;lon;timestamp;temperature;humidity
46366;DHT22;32073;49.166;8.076;2023-02-28T00:02:13;3.80;46.60
46366;DHT22;32073;49.166;8.076;2023-02-28T00:06:14;3.80;46.70
46366;DHT22;32073;49.166;8.076;2023-02-28T00:10:21;3.80;46.80
46366;DHT22;32073;49.166;8.076;2023-02-28T00:14:23;3.70;46.80
46366;DHT22;32073;49.166;8.076;2023-02-28T00:18:24;3.70;46.80
46366;DHT22;32073;49.166;8.076;2023-02-28T00:22:24;3.70;46.80
46366;DHT22;32073;49.166;8.076;2023-02-28T00:26:25;3.60;46.80
46366;DHT22;32073;49.166;8.076;2023-02-28T00:30:26;3.60;47.00
46366;DHT22;32073;49.166;8.076;2023-02-28T00:34:26;3.60;47.10
46366;DHT22;32073;49.166;8.076;2023-02-28T00:38:27;3.60;47.10
46366;DHT22;32073;49.166;8.076;2023-02-28T00:42:28;3.60;47.30
46366;DHT22;32073;49.166;8.076;2023-02-28T00:46:28;3.60;47.30
46366;DHT22;32073;49.166;8.076;2023-02-28T00:50:29;3.60;47.30
46366;DHT22;32073;49.166;8.076;2023-02-28T00:54:30;3.60;47.40
46366;DHT22;32073;49.166;8.076;2023-02-28T00:58:30;3.60;47.40
46366;DHT22;32073;49.166;8.076;2023-02-28T01:02:31;3.60;47.40
46366;DHT22;32073;49.166;8.076;2023-02-28T01:06:32;3.60;47.40
46366;DHT22;32073;49.166;8.076;2023-02-28T01:10:33;3.60;47.50
46366;DHT22;32073;49.166;8.076;2023-02-28T01:14:34;3.50;47.40
46366;DHT22;32073;49.166;8.076;2023-02-28T01:18:36;3.50;47.60
46366;DHT22;32073;49.166;8.076;2023-02-28T01:22:37;3.50;47.60
46366;DHT22;32073;49.166;8.076;2023-02-28T01:26:38;3.50;47.70
46366;DHT22;32073;49.166;8.076;2023-02-28T01:30:39;3.50;47.80
46366;DHT22;32073;49.166;8.076;2023-02-28T01:34:39;3.50;47.80
46366;DHT22;32073;49.166;8.076;2023-02-28T01:38:41;3.50;48.50
46366;DHT22;32073;49.166;8.076;2023-02-28T01:42:42;3.50;48.00
46366;DHT22;32073;49.166;8.076;2023-02-28T01:46:43;3.50;48.00
46366;DHT22;32073;49.166;8.076;2023-02-28T01:50:45;3.50;48.10
46366;DHT22;32073;49.166;8.076;2023-02-28T01:54:51;3.50;48.00
46366;DHT22;32073;49.166;8.076;2023-02-28T01:58:55;3.50;48.00
46366;DHT22;32073;49.166;8.076;2023-02-28T02:02:59;3.40;48.00
46366;DHT22;32073;49.166;8.076;2023-02-28T02:07:02;3.40;48.10
46366;DHT22;32073;49.166;8.076;2023-02-28T02:11:03;3.40;48.10
46366;DHT22;32073;49.166;8.076;2023-02-28T02:15:14;3.30;48.00
46366;DHT22;32073;49.166;8.076;2023-02-28T02:28:48;3.10;48.30
46366;DHT22;32073;49.166;8.076;2023-02-28T02:33:10;3.10;48.30
46366;DHT22;32073;49.166;8.076;2023-02-28T02:37:56;3.00;48.40
46366;DHT22;32073;49.166;8.076;2023-02-28T02:42:08;3.00;48.40
46366;DHT22;32073;49.166;8.076;2023-02-28T02:46:19;2.90;48.50
46366;DHT22;32073;49.166;8.076;2023-02-28T02:50:26;2.90;48.50
46366;DHT22;32073;49.166;8.076;2023-02-28T02:54:32;2.80;48.50
46366;DHT22;32073;49.166;8.076;2023-02-28T02:58:41;2.80;48.30
46366;DHT22;32073;49.166;8.076;2023-02-28T03:02:44;2.70;48.60
46366;DHT22;32073;49.166;8.076;2023-02-28T03:06:46;2.70;48.70
46366;DHT22;32073;49.166;8.076;2023-02-28T03:10:50;2.60;48.70
46366;DHT22;32073;49.166;8.076;2023-02-28T03:20:01;2.60;48.90
46366;DHT22;32073;49.166;8.076;2023-02-28T03:24:33;2.50;49.00
46366;DHT22;32073;49.166;8.076;2023-02-28T03:29:03;2.50;49.10
46366;DHT22;32073;49.166;8.076;2023-02-28T03:33:08;2.50;49.10
46366;DHT22;32073;49.166;8.076;2023-02-28T03:37:16;2.40;49.10
46366;DHT22;32073;49.166;8.076;2023-02-28T03:41:23;2.40;49.20
46366;DHT22;32073;49.166;8.076;2023-02-28T03:45:30;2.40;49.30
46366;DHT22;32073;49.166;8.076;2023-02-28T03:49:36;2.30;49.30
46366;DHT22;32073;49.166;8.076;2023-02-28T03:53:53;2.30;49.40
46366;DHT22;32073;49.166;8.076;2023-02-28T04:02:11;2.30;49.60
46366;DHT22;32073;49.166;8.076;2023-02-28T04:06:18;2.20;49.50
46366;DHT22;32073;49.166;8.076;2023-02-28T04:10:20;2.20;50.00
46366;DHT22;32073;49.166;8.076;2023-02-28T04:14:21;2.20;49.70
46366;DHT22;32073;49.166;8.076;2023-02-28T04:18:23;2.20;49.80
46366;DHT22;32073;49.166;8.076;2023-02-28T04:22:23;2.10;49.80
46366;DHT22;32073;49.166;8.076;2023-02-28T04:26:33;2.10;49.80
46366;DHT22;32073;49.166;8.076;2023-02-28T04:30:35;2.10;50.00
46366;DHT22;32073;49.166;8.076;2023-02-28T04:34:36;2.10;49.70
46366;DHT22;32073;49.166;8.076;2023-02-28T04:38:38;2.10;49.90
46366;DHT22;32073;49.166;8.076;2023-02-28T04:42:39;2.10;50.10
46366;DHT22;32073;49.166;8.076;2023-02-28T04:46:40;2.00;50.10
46366;DHT22;32073;49.166;8.076;2023-02-28T04:50:41;2.10;50.30
46366;DHT22;32073;49.166;8.076;2023-02-28T04:54:41;2.10;50.40
46366;DHT22;32073;49.166;8.076;2023-02-28T04:58:42;2.10;50.40
46366;DHT22;32073;49.166;8.076;2023-02-28T05:02:43;2.10;50.40
46366;DHT22;32073;49.166;8.076;2023-02-28T05:06:43;2.20;50.60
46366;DHT22;32073;49.166;8.076;2023-02-28T05:10:44;2.20;50.70
46366;DHT22;32073;49.166;8.076;2023-02-28T05:14:45;2.20;50.70
46366;DHT22;32073;49.166;8.076;2023-02-28T05:18:45;2.30;50.70
46366;DHT22;32073;49.166;8.076;2023-02-28T05:22:46;2.30;50.70
46366;DHT22;32073;49.166;8.076;2023-02-28T05:26:47;2.30;51.30
46366;DHT22;32073;49.166;8.076;2023-02-28T05:30:49;2.30;50.70
46366;DHT22;32073;49.166;8.076;2023-02-28T05:34:49;2.30;50.80
46366;DHT22;32073;49.166;8.076;2023-02-28T05:38:51;2.40;50.90
46366;DHT22;32073;49.166;8.076;2023-02-28T05:42:52;2.40;50.90
46366;DHT22;32073;49.166;8.076;2023-02-28T05:46:52;2.40;50.90
46366;DHT22;32073;49.166;8.076;2023-02-28T05:50:53;2.50;51.00
46366;DHT22;32073;49.166;8.076;2023-02-28T05:54:54;2.50;51.00
46366;DHT22;32073;49.166;8.076;2023-02-28T05:58:54;2.40;51.00
46366;DHT22;32073;49.166;8.076;2023-02-28T06:02:55;2.50;51.00
46366;DHT22;32073;49.166;8.076;2023-02-28T06:06:58;2.50;51.00
46366;DHT22;32073;49.166;8.076;2023-02-28T06:11:03;2.50;51.00
46366;DHT22;32073;49.166;8.076;2023-02-28T06:15:04;2.50;51.10
46366;DHT22;32073;49.166;8.076;2023-02-28T06:19:05;2.40;51.00
46366;DHT22;32073;49.166;8.076;2023-02-28T06:23:06;2.40;51.10
46366;DHT22;32073;49.166;8.076;2023-02-28T06:27:06;2.40;51.10
46366;DHT22;32073;49.166;8.076;2023-02-28T06:31:12;2.50;51.50
46366;DHT22;32073;49.166;8.076;2023-02-28T06:35:14;2.50;51.30
46366;DHT22;32073;49.166;8.076;2023-02-28T06:39:15;2.50;51.30
46366;DHT22;32073;49.166;8.076;2023-02-28T06:43:15;2.50;51.30
46366;DHT22;32073;49.166;8.076;2023-02-28T06:47:16;2.50;51.30
46366;DHT22;32073;49.166;8.076;2023-02-28T06:51:18;2.50;51.40
46366;DHT22;32073;49.166;8.076;2023-02-28T06:55:24;2.50;51.40
46366;DHT22;32073;49.166;8.076;2023-02-28T06:59:25;2.50;51.40
46366;DHT22;32073;49.166;8.076;2023-02-28T07:03:25;2.50;51.50
46366;DHT22;32073;49.166;8.076;2023-02-28T07:07:26;2.60;51.60
46366;DHT22;32073;49.166;8.076;2023-02-28T07:11:27;2.60;51.60
46366;DHT22;32073;49.166;8.076;2023-02-28T07:15:28;2.60;51.60
46366;DHT22;32073;49.166;8.076;2023-02-28T07:19:29;2.70;51.70
46366;DHT22;32073;49.166;8.076;2023-02-28T07:23:29;2.70;51.70
46366;DHT22;32073;49.166;8.076;2023-02-28T07:27:30;2.70;51.80
46366;DHT22;32073;49.166;8.076;2023-02-28T07:31:31;2.80;51.90
46366;DHT22;32073;49.166;8.076;2023-02-28T07:35:32;2.90;51.90
46366;DHT22;32073;49.166;8.076;2023-02-28T07:39:33;2.90;51.90
46366;DHT22;32073;49.166;8.076;2023-02-28T07:43:34;3.00;51.80
46366;DHT22;32073;49.166;8.076;2023-02-28T07:47:34;3.00;51.80
46366;DHT22;32073;49.166;8.076;2023-02-28T07:51:35;3.00;51.70
46366;DHT22;32073;49.166;8.076;2023-02-28T07:55:36;3.10;51.80
46366;DHT22;32073;49.166;8.076;2023-02-28T07:59:36;3.10;51.90
46366;DHT22;32073;49.166;8.076;2023-02-28T08:03:37;3.20;51.90
46366;DHT22;32073;49.166;8.076;2023-02-28T08:07:39;3.20;51.90
46366;DHT22;32073;49.166;8.076;2023-02-28T08:11:40;3.30;51.90
46366;DHT22;32073;49.166;8.076;2023-02-28T08:15:41;3.30;51.90
46366;DHT22;32073;49.166;8.076;2023-02-28T08:19:45;3.30;51.90
46366;DHT22;32073;49.166;8.076;2023-02-28T08:23:48;3.40;51.90
46366;DHT22;32073;49.166;8.076;2023-02-28T08:27:52;3.50;51.90
46366;DHT22;32073;49.166;8.076;2023-02-28T08:31:53;3.60;52.00
46366;DHT22;32073;49.166;8.076;2023-02-28T08:35:54;3.60;52.00
46366;DHT22;32073;49.166;8.076;2023-02-28T08:39:55;3.70;52.10
46366;DHT22;32073;49.166;8.076;2023-02-28T08:43:56;3.80;52.10
46366;DHT22;32073;49.166;8.076;2023-02-28T08:47:57;3.90;52.00
46366;DHT22;32073;49.166;8.076;2023-02-28T08:51:57;3.90;51.90
46366;DHT22;32073;49.166;8.076;2023-02-28T08:56:04;3.90;51.90
46366;DHT22;32073;49.166;8.076;2023-02-28T09:00:06;4.00;51.90
46366;DHT22;32073;49.166;8.076;2023-02-28T09:04:13;4.00;51.90
46366;DHT22;32073;49.166;8.076;2023-02-28T09:08:14;4.10;52.00
46366;DHT22;32073;49.166;8.076;2023-02-28T09:12:15;4.10;51.90
46366;DHT22;32073;49.166;8.076;2023-02-28T09:16:16;4.20;52.10
46366;DHT22;32073;49.166;8.076;2023-02-28T09:20:17;4.30;52.10
46366;DHT22;32073;49.166;8.076;2023-02-28T09:24:18;4.30;52.10
46366;DHT22;32073;49.166;8.076;2023-02-28T09:28:20;4.40;52.10
46366;DHT22;32073;49.166;8.076;2023-02-28T09:32:22;4.50;52.10
46366;DHT22;32073;49.166;8.076;2023-02-28T09:36:23;4.60;52.10
46366;DHT22;32073;49.166;8.076;2023-02-28T09:40:26;4.70;52.10
46366;DHT22;32073;49.166;8.076;2023-02-28T09:44:31;4.80;52.10
46366;DHT22;32073;49.166;8.076;2023-02-28T09:48:41;4.90;52.10
46366;DHT22;32073;49.166;8.076;2023-02-28T09:52:45;5.10;52.30
46366;DHT22;32073;49.166;8.076;2023-02-28T09:57:01;5.30;52.50
46366;DHT22;32073;49.166;8.076;2023-02-28T10:14:34;6.20;51.90
46366;DHT22;32073;49.166;8.076;2023-02-28T10:31:19;6.80;50.80
46366;DHT22;32073;49.166;8.076;2023-02-28T10:35:25;6.90;50.80
46366;DHT22;32073;49.166;8.076;2023-02-28T10:39:43;7.00;50.80
46366;DHT22;32073;49.166;8.076;2023-02-28T10:43:45;7.10;49.60
46366;DHT22;32073;49.166;8.076;2023-02-28T10:48:26;7.10;50.00
46366;DHT22;32073;49.166;8.076;2023-02-28T10:52:39;7.10;49.10
46366;DHT22;32073;49.166;8.076;2023-02-28T10:56:40;7.10;49.70
46366;DHT22;32073;49.166;8.076;2023-02-28T11:00:41;7.10;50.00
46366;DHT22;32073;49.166;8.076;2023-02-28T11:04:41;7.20;49.60
46366;DHT22;32073;49.166;8.076;2023-02-28T11:08:50;7.10;49.30
46366;DHT22;32073;49.166;8.076;2023-02-28T11:12:56;7.10;48.90
46366;DHT22;32073;49.166;8.076;2023-02-28T11:21:36;7.10;49.30
46366;DHT22;32073;49.166;8.076;2023-02-28T11:25:47;7.10;49.40
46366;DHT22;32073;49.166;8.076;2023-02-28T11:29:51;7.00;48.60
46366;DHT22;32073;49.166;8.076;2023-02-28T11:33:53;7.00;48.80
46366;DHT22;32073;49.166;8.076;2023-02-28T11:37:54;7.00;48.90
46366;DHT22;32073;49.166;8.076;2023-02-28T11:54:59;7.40;48.70
46366;DHT22;32073;49.166;8.076;2023-02-28T11:59:38;7.50;48.90
46366;DHT22;32073;49.166;8.076;2023-02-28T12:03:57;7.50;47.80
46366;DHT22;32073;49.166;8.076;2023-02-28T12:08:11;7.50;47.80
46366;DHT22;32073;49.166;8.076;2023-02-28T12:22:20;7.50;48.00
46366;DHT22;32073;49.166;8.076;2023-02-28T12:30:52;7.70;48.50
46366;DHT22;32073;49.166;8.076;2023-02-28T12:35:13;7.80;47.70
46366;DHT22;32073;49.166;8.076;2023-02-28T12:39:32;7.80;47.70
46366;DHT22;32073;49.166;8.076;2023-02-28T12:43:40;7.90;48.40
46366;DHT22;32073;49.166;8.076;2023-02-28T12:47:48;8.00;48.20
46366;DHT22;32073;49.166;8.076;2023-02-28T12:51:52;8.10;48.30
46366;DHT22;32073;49.166;8.076;2023-02-28T12:56:14;8.20;48.50
46366;DHT22;32073;49.166;8.076;2023-02-28T13:00:23;8.30;47.60
46366;DHT22;32073;49.166;8.076;2023-02-28T13:09:04;8.60;47.40
46366;DHT22;32073;49.166;8.076;2023-02-28T13:13:15;8.70;47.10
46366;DHT22;32073;49.166;8.076;2023-02-28T13:17:23;8.80;47.40
46366;DHT22;32073;49.166;8.076;2023-02-28T13:21:30;8.80;47.20
46366;DHT22;32073;49.166;8.076;2023-02-28T13:29:39;8.90;47.00
46366;DHT22;32073;49.166;8.076;2023-02-28T13:34:11;8.80;46.60
46366;DHT22;32073;49.166;8.076;2023-02-28T13:38:34;8.80;45.90
46366;DHT22;32073;49.166;8.076;2023-02-28T13:50:48;8.70;46.70
46366;DHT22;32073;49.166;8.076;2023-02-28T14:00:15;8.70;46.10
46366;DHT22;32073;49.166;8.076;2023-02-28T14:04:43;8.70;46.20
46366;DHT22;32073;49.166;8.076;2023-02-28T14:08:59;8.80;46.10
46366;DHT22;32073;49.166;8.076;2023-02-28T14:17:18;8.70;45.70
46366;DHT22;32073;49.166;8.076;2023-02-28T14:21:23;8.80;46.50
46366;DHT22;32073;49.166;8.076;2023-02-28T14:39:10;8.60;46.30
46366;DHT22;32073;49.166;8.076;2023-02-28T14:43:21;8.70;46.40
46366;DHT22;32073;49.166;8.076;2023-02-28T14:47:30;8.70;46.10
46366;DHT22;32073;49.166;8.076;2023-02-28T14:51:32;8.70;46.40
46366;DHT22;32073;49.166;8.076;2023-02-28T14:55:36;8.80;46.60
46366;DHT22;32073;49.166;8.076;2023-02-28T14:59:37;8.80;46.10
46366;DHT22;32073;49.166;8.076;2023-02-28T15:03:39;8.90;46.30
46366;DHT22;32073;49.166;8.076;2023-02-28T15:07:41;8.90;46.40
46366;DHT22;32073;49.166;8.076;2023-02-28T15:11:44;8.90;46.40
46366;DHT22;32073;49.166;8.076;2023-02-28T15:16:01;8.90;46.30
46366;DHT22;32073;49.166;8.076;2023-02-28T15:20:05;8.90;45.30
46366;DHT22;32073;49.166;8.076;2023-02-28T15:24:17;8.90;46.00
46366;DHT22;32073;49.166;8.076;2023-02-28T15:28:24;8.80;45.40
46366;DHT22;32073;49.166;8.076;2023-02-28T15:32:29;8.80;45.80
46366;DHT22;32073;49.166;8.076;2023-02-28T15:36:34;8.80;45.60
46366;DHT22;32073;49.166;8.076;2023-02-28T15:40:41;8.70;45.80
46366;DHT22;32073;49.166;8.076;2023-02-28T15:44:43;8.70;45.30
46366;DHT22;32073;49.166;8.076;2023-02-28T15:48:54;8.60;45.50
46366;DHT22;32073;49.166;8.076;2023-02-28T15:52:55;8.50;45.30
46366;DHT22;32073;49.166;8.076;2023-02-28T15:56:59;8.50;45.70
46366;DHT22;32073;49.166;8.076;2023-02-28T16:09:16;8.40;45.60
46366;DHT22;32073;49.166;8.076;2023-02-28T16:13:17;8.40;45.30
46366;DHT22;32073;49.166;8.076;2023-02-28T16:17:29;8.40;45.60
46366;DHT22;32073;49.166;8.076;2023-02-28T16:21:32;8.30;45.50
46366;DHT22;32073;49.166;8.076;2023-02-28T16:25:40;8.30;45.50
46366;DHT22;32073;49.166;8.076;2023-02-28T16:29:43;8.20;45.00
46366;DHT22;32073;49.166;8.076;2023-02-28T16:33:45;8.20;45.50
46366;DHT22;32073;49.166;8.076;2023-02-28T16:37:46;8.20;44.60
46366;DHT22;32073;49.166;8.076;2023-02-28T16:41:48;8.10;45.50
46366;DHT22;32073;49.166;8.076;2023-02-28T16:45:55;8.10;45.50
46366;DHT22;32073;49.166;8.076;2023-02-28T16:49:57;8.00;45.20
46366;DHT22;32073;49.166;8.076;2023-02-28T16:53:57;7.90;45.40
46366;DHT22;32073;49.166;8.076;2023-02-28T16:57:59;7.80;45.50
46366;DHT22;32073;49.166;8.076;2023-02-28T17:02:01;7.80;45.50
46366;DHT22;32073;49.166;8.076;2023-02-28T17:06:02;7.70;45.50
46366;DHT22;32073;49.166;8.076;2023-02-28T17:10:15;7.60;45.50
46366;DHT22;32073;49.166;8.076;2023-02-28T17:14:18;7.60;45.20
46366;DHT22;32073;49.166;8.076;2023-02-28T17:18:19;7.50;45.50
46366;DHT22;32073;49.166;8.076;2023-02-28T17:22:21;7.50;46.10
46366;DHT22;32073;49.166;8.076;2023-02-28T17:26:22;7.40;45.60
46366;DHT22;32073;49.166;8.076;2023-02-28T17:30:28;7.40;45.70
46366;DHT22;32073;49.166;8.076;2023-02-28T17:34:28;7.30;45.50
46366;DHT22;32073;49.166;8.076;2023-02-28T17:38:29;7.20;45.50
46366;DHT22;32073;49.166;8.076;2023-02-28T17:42:30;7.20;45.60
46366;DHT22;32073;49.166;8.076;2023-02-28T17:46:31;7.10;45.60
46366;DHT22;32073;49.166;8.076;2023-02-28T17:50:32;7.00;45.60
46366;DHT22;32073;49.166;8.076;2023-02-28T17:54:33;6.90;45.60
46366;DHT22;32073;49.166;8.076;2023-02-28T17:58:34;6.90;45.60
46366;DHT22;32073;49.166;8.076;2023-02-28T18:02:34;6.80;45.70
46366;DHT22;32073;49.166;8.076;2023-02-28T18:06:40;6.80;45.70
46366;DHT22;32073;49.166;8.076;2023-02-28T18:10:50;6.70;45.60
46366;DHT22;32073;49.166;8.076;2023-02-28T18:14:50;6.70;45.80
46366;DHT22;32073;49.166;8.076;2023-02-28T18:18:51;6.60;45.80
46366;DHT22;32073;49.166;8.076;2023-02-28T18:22:52;6.60;45.80
46366;DHT22;32073;49.166;8.076;2023-02-28T18:26:52;6.60;45.80
46366;DHT22;32073;49.166;8.076;2023-02-28T18:30:53;6.50;45.80
46366;DHT22;32073;49.166;8.076;2023-02-28T18:34:54;6.50;45.80
46366;DHT22;32073;49.166;8.076;2023-02-28T18:38:54;6.40;45.90
46366;DHT22;32073;49.166;8.076;2023-02-28T18:42:55;6.30;45.90
46366;DHT22;32073;49.166;8.076;2023-02-28T18:46:56;6.30;45.90
46366;DHT22;32073;49.166;8.076;2023-02-28T18:50:56;6.30;46.00
46366;DHT22;32073;49.166;8.076;2023-02-28T18:54:57;6.20;46.00
46366;DHT22;32073;49.166;8.076;2023-02-28T18:58:58;6.20;46.00
46366;DHT22;32073;49.166;8.076;2023-02-28T19:02:58;6.10;46.00
46366;DHT22;32073;49.166;8.076;2023-02-28T19:06:59;6.10;46.10
46366;DHT22;32073;49.166;8.076;2023-02-28T19:11:06;6.10;46.70
46366;DHT22;32073;49.166;8.076;2023-02-28T19:15:10;6.10;46.00
46366;DHT22;32073;49.166;8.076;2023-02-28T19:19:11;6.00;46.10
46366;DHT22;32073;49.166;8.076;2023-02-28T19:23:13;6.00;46.20
46366;DHT22;32073;49.166;8.076;2023-02-28T19:27:14;6.00;46.20
46366;DHT22;32073;49.166;8.076;2023-02-28T19:31:19;5.90;46.30
46366;DHT22;32073;49.166;8.076;2023-02-28T19:35:21;5.90;46.20
46366;DHT22;32073;49.166;8.076;2023-02-28T19:39:22;5.90;46.30
46366;DHT22;32073;49.166;8.076;2023-02-28T19:43:22;5.90;46.30
46366;DHT22;32073;49.166;8.076;2023-02-28T19:47:23;5.90;46.30
46366;DHT22;32073;49.166;8.076;2023-02-28T19:51:24;5.90;46.30
46366;DHT22;32073;49.166;8.076;2023-02-28T19:55:25;5.90;46.40
46366;DHT22;32073;49.166;8.076;2023-02-28T19:59:26;5.90;46.40
46366;DHT22;32073;49.166;8.076;2023-02-28T20:03:27;5.90;46.40
46366;DHT22;32073;49.166;8.076;2023-02-28T20:07:28;5.90;46.40
46366;DHT22;32073;49.166;8.076;2023-02-28T20:11:29;5.90;46.40
46366;DHT22;32073;49.166;8.076;2023-02-28T20:15:29;5.80;46.40
46366;DHT22;32073;49.166;8.076;2023-02-28T20:19:31;5.90;46.50
46366;DHT22;32073;49.166;8.076;2023-02-28T20:23:32;5.80;46.40
46366;DHT22;32073;49.166;8.076;2023-02-28T20:27:33;5.80;46.40
46366;DHT22;32073;49.166;8.076;2023-02-28T20:31:35;5.70;46.40
46366;DHT22;32073;49.166;8.076;2023-02-28T20:35:39;5.70;46.50
46366;DHT22;32073;49.166;8.076;2023-02-28T20:39:39;5.60;46.50
46366;DHT22;32073;49.166;8.076;2023-02-28T20:43:41;5.70;46.60
46366;DHT22;32073;49.166;8.076;2023-02-28T20:47:43;5.60;46.60
46366;DHT22;32073;49.166;8.076;2023-02-28T20:51:44;5.60;46.60
46366;DHT22;32073;49.166;8.076;2023-02-28T20:56:05;5.60;46.60
46366;DHT22;32073;49.166;8.076;2023-02-28T21:00:08;5.60;46.40
46366;DHT22;32073;49.166;8.076;2023-02-28T21:04:15;5.60;46.60
46366;DHT22;32073;49.166;8.076;2023-02-28T21:08:16;5.50;46.60
46366;DHT22;32073;49.166;8.076;2023-02-28T21:12:16;5.50;46.60
46366;DHT22;32073;49.166;8.076;2023-02-28T21:16:19;5.50;46.70
46366;DHT22;32073;49.166;8.076;2023-02-28T21:20:22;5.50;46.70
46366;DHT22;32073;49.166;8.076;2023-02-28T21:24:23;5.50;46.70
46366;DHT22;32073;49.166;8.076;2023-02-28T21:28:23;5.50;46.70
46366;DHT22;32073;49.166;8.076;2023-02-28T21:32:24;5.40;46.70
46366;DHT22;32073;49.166;8.076;2023-02-28T21:36:27;5.40;46.70
46366;DHT22;32073;49.166;8.076;2023-02-28T21:40:32;5.40;46.70
46366;DHT22;32073;49.166;8.076;2023-02-28T21:44:33;5.30;46.60
46366;DHT22;32073;49.166;8.076;2023-02-28T21:48:34;5.30;46.70
46366;DHT22;32073;49.166;8.076;2023-02-28T21:52:35;5.30;46.70
46366;DHT22;32073;49.166;8.076;2023-02-28T21:56:37;5.20;46.70
46366;DHT22;32073;49.166;8.076;2023-02-28T22:00:37;5.20;46.70
46366;DHT22;32073;49.166;8.076;2023-02-28T22:04:40;5.20;46.70
46366;DHT22;32073;49.166;8.076;2023-02-28T22:08:44;5.20;46.80
46366;DHT22;32073;49.166;8.076;2023-02-28T22:12:46;5.10;46.80
46366;DHT22;32073;49.166;8.076;2023-02-28T22:16:47;5.10;46.80
46366;DHT22;32073;49.166;8.076;2023-02-28T22:20:53;5.10;46.90
46366;DHT22;32073;49.166;8.076;2023-02-28T22:24:54;5.10;46.80
46366;DHT22;32073;49.166;8.076;2023-02-28T22:28:55;5.00;46.90
46366;DHT22;32073;49.166;8.076;2023-02-28T22:32:56;5.00;46.90
46366;DHT22;32073;49.166;8.076;2023-02-28T22:36:57;5.00;46.90
46366;DHT22;32073;49.166;8.076;2023-02-28T22:40:57;4.90;46.90
46366;DHT22;32073;49.166;8.076;2023-02-28T22:44:58;4.90;47.00
46366;DHT22;32073;49.166;8.076;2023-02-28T22:49:00;4.80;47.00
46366;DHT22;32073;49.166;8.076;2023-02-28T22:53:02;4.80;47.10
46366;DHT22;32073;49.166;8.076;2023-02-28T22:57:02;4.80;47.10
46366;DHT22;32073;49.166;8.076;2023-02-28T23:01:11;4.70;47.10
46366;DHT22;32073;49.166;8.076;2023-02-28T23:05:13;4.70;47.10
46366;DHT22;32073;49.166;8.076;2023-02-28T23:09:16;4.70;47.20
46366;DHT22;32073;49.166;8.076;2023-02-28T23:13:19;4.70;47.20
46366;DHT22;32073;49.166;8.076;2023-02-28T23:17:19;4.60;47.20
46366;DHT22;32073;49.166;8.076;2023-02-28T23:21:20;4.60;47.30
46366;DHT22;32073;49.166;8.076;2023-02-28T23:25:21;4.60;47.30
46366;DHT22;32073;49.166;8.076;2023-02-28T23:29:24;4.60;47.30
46366;DHT22;32073;49.166;8.076;2023-02-28T23:33:25;4.50;47.30
46366;DHT22;32073;49.166;8.076;2023-02-28T23:37:26;4.60;47.40
46366;DHT22;32073;49.166;8.076;2023-02-28T23:41:26;4.50;47.40
46366;DHT22;32073;49.166;8.076;2023-02-28T23:45:27;4.50;47.40
46366;DHT22;32073;49.166;8.076;2023-02-28T23:49:28;4.50;47.50
46366;DHT22;32073;49.166;8.076;2023-02-28T23:53:31;4.40;47.40
46366;DHT22;32073;49.166;8.076;2023-02-28T23:57:33;4.40;47.40
